Time;durP1;ratioP1;P1;durP2;ratioP2;P2;SDS_P1;SDS_P2;PMS_P1;PMS_P2;Temp;Humidity;BMP_temperature;BMP_pressure;BME280_temperature;BME280_humidity;BME280_pressure;Samples;Min_cycle;Max_cycle;Signal;HPM_P1;HPM_P2
2022/06/11 00:00:20;;;;;;;4.88;1.83;;;;;;;;;;4979616;28;20113;-78
2022/06/11 00:02:46;;;;;;;8.15;1.63;;;;;;;;;;4995664;28;20015;-78
2022/06/11 00:05:11;;;;;;;3.08;1.80;;;;;;;;;;4996992;28;20109;-78
2022/06/11 00:07:38;;;;;;;2.35;1.83;;;;;;;;;;4979296;28;20101;-78
2022/06/11 00:10:04;;;;;;;3.42;1.83;;;;;;;;;;4995650;28;20026;-78
2022/06/11 00:12:30;;;;;;;2.53;1.50;;;;;;;;;;4996424;28;20034;-78
2022/06/11 00:14:56;;;;;;;2.08;1.50;;;;;;;;;;4979335;28;20041;-78
2022/06/11 00:17:24;;;;;;;3.15;1.58;;;;;;;;;;4996506;28;20030;-78
2022/06/11 00:19:49;;;;;;;5.82;1.70;;;;;;;;;;4996504;28;20105;-78
2022/06/11 00:22:16;;;;;;;2.25;1.50;;;;;;;;;;4979302;28;20078;-78
2022/06/11 00:24:42;;;;;;;1.77;1.45;;;;;;;;;;4995771;28;20030;-78
2022/06/11 00:27:09;;;;;;;1.73;1.30;;;;;;;;;;4996268;28;20428;-78
2022/06/11 00:29:36;;;;;;;2.13;1.45;;;;;;;;;;4995655;28;20391;-78
2022/06/11 00:32:03;;;;;;;1.77;1.50;;;;;;;;;;4979222;28;20022;-78
2022/06/11 00:34:28;;;;;;;2.03;1.42;;;;;;;;;;4979022;28;20404;-78
2022/06/11 00:36:54;;;;;;;2.92;1.45;;;;;;;;;;4978916;28;20031;-79
2022/06/11 00:39:22;;;;;;;2.75;1.65;;;;;;;;;;4996948;28;20053;-77
2022/06/11 00:41:52;;;;;;;1.40;1.30;;;;;;;;;;4995487;28;20038;-78
2022/06/11 00:44:17;;;;;;;2.28;1.50;;;;;;;;;;4995977;28;20033;-77
2022/06/11 00:46:55;;;;;;;2.47;1.80;;;;;;;;;;4996667;28;20026;-78
2022/06/11 00:49:36;;;;;;;2.13;1.70;;;;;;;;;;4994781;28;20117;-77
2022/06/11 00:52:18;;;;;;;1.95;1.52;;;;;;;;;;4996066;28;20375;-77
2022/06/11 00:54:48;;;;;;;3.05;1.33;;;;;;;;;;4994835;28;20058;-77
2022/06/11 00:57:14;;;;;;;1.80;1.38;;;;;;;;;;4996053;28;20030;-78
2022/06/11 00:59:48;;;;;;;1.75;1.35;;;;;;;;;;4978421;28;20478;-77
2022/06/11 01:02:13;;;;;;;3.70;1.50;;;;;;;;;;4994614;28;20018;-77
2022/06/11 01:04:47;;;;;;;2.08;1.50;;;;;;;;;;4995623;28;20053;-77
2022/06/11 01:07:18;;;;;;;1.30;1.20;;;;;;;;;;4994482;28;20105;-78
2022/06/11 01:10:19;;;;;;;3.28;1.52;;;;;;;;;;4995405;28;20026;-78
2022/06/11 01:13:05;;;;;;;2.60;1.40;;;;;;;;;;4995566;28;20105;-77
2022/06/11 01:15:36;;;;;;;1.63;1.52;;;;;;;;;;4995176;28;20026;-79
2022/06/11 01:18:45;;;;;;;1.42;1.33;;;;;;;;;;4977894;28;20029;-79
2022/06/11 01:21:31;;;;;;;2.45;1.50;;;;;;;;;;4994060;28;20504;-78
2022/06/11 01:24:23;;;;;;;2.90;1.50;;;;;;;;;;4994005;28;20467;-78
2022/06/11 01:27:11;;;;;;;2.53;1.30;;;;;;;;;;4994160;28;20026;-78
2022/06/11 01:29:59;;;;;;;1.40;1.27;;;;;;;;;;4995170;28;20073;-78
2022/06/11 01:32:33;;;;;;;3.20;1.33;;;;;;;;;;4995053;28;20364;-78
2022/06/11 01:35:23;;;;;;;2.58;1.70;;;;;;;;;;4992950;28;20495;-78
2022/06/11 01:38:00;;;;;;;2.10;1.40;;;;;;;;;;4995425;28;20030;-78
2022/06/11 01:40:26;;;;;;;1.98;1.30;;;;;;;;;;4994485;28;20069;-78
2022/06/11 01:42:56;;;;;;;2.83;1.48;;;;;;;;;;4993438;28;20077;-78
2022/06/11 01:45:35;;;;;;;1.83;1.30;;;;;;;;;;4994035;28;20109;-78
2022/06/11 01:48:03;;;;;;;1.50;1.40;;;;;;;;;;4977115;28;20027;-78
2022/06/11 01:50:30;;;;;;;1.95;1.33;;;;;;;;;;4993768;28;20022;-78
2022/06/11 01:53:14;;;;;;;3.47;1.70;;;;;;;;;;4993685;28;20367;-79
2022/06/11 01:55:42;;;;;;;;;;;;;;;;;;4994175;28;20026;-79
2022/06/11 01:58:23;;;;;;;1.20;1.10;;;;;;;;;;4993828;28;20427;-78
2022/06/11 02:01:07;;;;;;;2.70;1.55;;;;;;;;;;4993342;28;20026;-78
2022/06/11 02:03:53;;;;;;;2.00;1.40;;;;;;;;;;4993289;28;20018;-79
2022/06/11 02:06:49;;;;;;;2.13;1.40;;;;;;;;;;4993385;28;20024;-78
2022/06/11 02:09:39;;;;;;;1.80;1.23;;;;;;;;;;4993122;28;20030;-78
2022/06/11 02:12:19;;;;;;;2.22;1.30;;;;;;;;;;4993390;28;20438;-78
2022/06/11 02:14:55;;;;;;;1.75;1.40;;;;;;;;;;4977129;28;20037;-78
2022/06/11 02:17:27;;;;;;;1.90;1.38;;;;;;;;;;4993093;28;20030;-78
2022/06/11 02:20:11;;;;;;;3.80;1.45;;;;;;;;;;4994144;28;20518;-78
2022/06/11 02:22:51;;;;;;;1.63;1.30;;;;;;;;;;4994391;28;20041;-78
2022/06/11 02:25:22;;;;;;;2.53;1.50;;;;;;;;;;4993017;28;20445;-78
2022/06/11 02:27:49;;;;;;;1.30;1.20;;;;;;;;;;4992761;28;20030;-78
2022/06/11 02:30:18;;;;;;;3.58;1.10;;;;;;;;;;4992954;28;20018;-78
2022/06/11 02:32:44;;;;;;;2.55;1.50;;;;;;;;;;4992863;28;20018;-78
2022/06/11 02:35:13;;;;;;;2.90;1.90;;;;;;;;;;4992768;28;20033;-78
2022/06/11 02:37:44;;;;;;;0.98;0.98;;;;;;;;;;4992606;28;20030;-78
2022/06/11 02:40:15;;;;;;;1.88;1.27;;;;;;;;;;4992726;28;20026;-78
2022/06/11 02:42:41;;;;;;;1.30;1.20;;;;;;;;;;4976213;28;20399;-78
2022/06/11 02:45:10;;;;;;;1.55;1.08;;;;;;;;;;4992223;28;20129;-78
2022/06/11 02:47:36;;;;;;;2.95;1.40;;;;;;;;;;4992525;28;20030;-79
2022/06/11 02:50:03;;;;;;;2.42;1.20;;;;;;;;;;4992492;28;20041;-79
2022/06/11 02:52:29;;;;;;;2.53;1.40;;;;;;;;;;4992394;28;20029;-79
2022/06/11 02:54:55;;;;;;;1.33;1.23;;;;;;;;;;4993652;28;20027;-79
2022/06/11 02:57:23;;;;;;;3.75;1.50;;;;;;;;;;4992999;28;20030;-79
2022/06/11 02:59:50;;;;;;;1.75;1.20;;;;;;;;;;4992406;28;20069;-79
2022/06/11 03:02:16;;;;;;;1.98;1.50;;;;;;;;;;4976181;28;20106;-79
2022/06/11 03:04:42;;;;;;;2.40;1.25;;;;;;;;;;4992474;28;20112;-79
2022/06/11 03:07:08;;;;;;;3.03;1.20;;;;;;;;;;4992401;28;20402;-79
2022/06/11 03:09:35;;;;;;;1.90;1.40;;;;;;;;;;4993802;28;20035;-78
2022/06/11 03:12:02;;;;;;;1.20;1.10;;;;;;;;;;4992437;28;20038;-78
2022/06/11 03:14:27;;;;;;;1.70;1.30;;;;;;;;;;4992094;28;20030;-78
2022/06/11 03:16:53;;;;;;;3.28;1.20;;;;;;;;;;4992308;28;20030;-78
2022/06/11 03:19:20;;;;;;;1.38;0.95;;;;;;;;;;4993376;28;20049;-78
2022/06/11 03:21:53;;;;;;;1.15;1.10;;;;;;;;;;4992183;28;20018;-78
2022/06/11 03:24:18;;;;;;;1.35;1.10;;;;;;;;;;4976630;28;20031;-78
2022/06/11 03:26:44;;;;;;;2.15;1.10;;;;;;;;;;4992169;28;20026;-79
2022/06/11 03:29:10;;;;;;;0.90;0.90;;;;;;;;;;4993657;28;20037;-78
2022/06/11 03:31:36;;;;;;;0.77;0.77;;;;;;;;;;4993479;28;20030;-79
2022/06/11 03:34:01;;;;;;;1.77;1.02;;;;;;;;;;4992990;28;20435;-79
2022/06/11 03:36:27;;;;;;;1.42;1.33;;;;;;;;;;4975978;28;20065;-79
2022/06/11 03:38:52;;;;;;;1.00;1.00;;;;;;;;;;4992274;28;20038;-79
2022/06/11 03:41:21;;;;;;;0.93;0.93;;;;;;;;;;4992796;28;20034;-79
2022/06/11 03:43:48;;;;;;;1.20;1.10;;;;;;;;;;4960174;28;20204;-79
2022/06/11 03:46:14;;;;;;;4.13;1.42;;;;;;;;;;4992491;28;20431;-78
2022/06/11 03:48:39;;;;;;;2.92;1.35;;;;;;;;;;4992035;28;20104;-78
2022/06/11 03:51:06;;;;;;;1.42;1.10;;;;;;;;;;4992054;28;20165;-79
2022/06/11 03:53:32;;;;;;;3.67;1.13;;;;;;;;;;4992064;28;20098;-79
2022/06/11 03:55:58;;;;;;;1.20;1.10;;;;;;;;;;4993382;28;20535;-79
2022/06/11 03:58:24;;;;;;;1.70;1.17;;;;;;;;;;4995619;28;20026;-79
2022/06/11 04:03:35;;;;;;;1.38;1.00;;;;;;;;;;4995977;28;20029;-77
2022/06/11 04:06:02;;;;;;;4.35;1.17;;;;;;;;;;4995619;28;20034;-78
2022/06/11 04:08:28;;;;;;;1.80;1.00;;;;;;;;;;4996902;28;20030;-78
2022/06/11 04:10:56;;;;;;;1.20;1.10;;;;;;;;;;4995817;28;20034;-78
2022/06/11 04:13:23;;;;;;;1.17;1.08;;;;;;;;;;4979234;28;20105;-78
2022/06/11 04:15:50;;;;;;;1.48;1.05;;;;;;;;;;4979230;28;20118;-78
2022/06/11 04:18:30;;;;;;;3.63;1.17;;;;;;;;;;4978922;28;20026;-78
2022/06/11 04:20:57;;;;;;;1.17;1.00;;;;;;;;;;4995517;28;20077;-78
2022/06/11 04:23:24;;;;;;;1.85;1.13;;;;;;;;;;4995347;28;20069;-78
2022/06/11 04:25:51;;;;;;;1.92;1.10;;;;;;;;;;4996634;28;20121;-78
2022/06/11 04:28:17;;;;;;;1.55;1.10;;;;;;;;;;4995013;28;20022;-78
2022/06/11 04:30:42;;;;;;;1.15;1.00;;;;;;;;;;4996183;28;20479;-78
2022/06/11 04:33:07;;;;;;;5.75;0.90;;;;;;;;;;4996446;28;20391;-78
2022/06/11 04:35:33;;;;;;;1.15;1.02;;;;;;;;;;4995300;28;20118;-78
2022/06/11 04:37:59;;;;;;;1.25;0.98;;;;;;;;;;4996372;28;20454;-79
2022/06/11 04:40:25;;;;;;;2.03;1.20;;;;;;;;;;4995467;28;20084;-78
2022/06/11 04:42:50;;;;;;;1.58;1.00;;;;;;;;;;4995616;28;20046;-78
2022/06/11 04:45:18;;;;;;;1.10;0.93;;;;;;;;;;4978948;28;20034;-78
2022/06/11 04:47:44;;;;;;;1.90;1.00;;;;;;;;;;4995035;28;20027;-77
2022/06/11 04:50:12;;;;;;;1.20;1.00;;;;;;;;;;4995087;28;20156;-78
2022/06/11 04:52:37;;;;;;;2.17;1.10;;;;;;;;;;4995075;28;20038;-78
2022/06/11 04:55:03;;;;;;;4.15;1.02;;;;;;;;;;4996009;28;20398;-79
2022/06/11 04:57:29;;;;;;;1.83;1.20;;;;;;;;;;4996714;28;20026;-78
2022/06/11 04:59:54;;;;;;;1.35;1.00;;;;;;;;;;4996378;28;20046;-78
2022/06/11 05:02:22;;;;;;;1.98;1.10;;;;;;;;;;4996070;28;20061;-78
2022/06/11 05:04:47;;;;;;;2.03;1.10;;;;;;;;;;4995963;28;20034;-78
2022/06/11 05:07:13;;;;;;;3.38;1.15;;;;;;;;;;4994708;28;20034;-79
2022/06/11 05:09:38;;;;;;;1.35;0.93;;;;;;;;;;4994663;28;20022;-79
2022/06/11 05:12:04;;;;;;;3.22;1.40;;;;;;;;;;4978706;28;20541;-80
2022/06/11 05:14:29;;;;;;;2.63;1.10;;;;;;;;;;4994553;28;20105;-79
2022/06/11 05:16:56;;;;;;;2.78;1.02;;;;;;;;;;4994466;28;20026;-80
2022/06/11 05:19:22;;;;;;;2.55;1.25;;;;;;;;;;4978357;28;20037;-80
2022/06/11 05:21:49;;;;;;;1.90;1.13;;;;;;;;;;4996358;28;20026;-80
2022/06/11 05:24:14;;;;;;;1.40;1.00;;;;;;;;;;4979821;28;20035;-81
2022/06/11 05:26:44;;;;;;;3.33;1.20;;;;;;;;;;4964516;28;20030;-80
2022/06/11 05:29:17;;;;;;;2.70;1.10;;;;;;;;;;4997111;28;20034;-80
2022/06/11 05:31:42;;;;;;;2.55;1.13;;;;;;;;;;4981412;28;20026;-78
2022/06/11 05:34:08;;;;;;;3.80;1.20;;;;;;;;;;4997561;28;20041;-79
2022/06/11 05:36:33;;;;;;;4.82;1.40;;;;;;;;;;4996929;28;20038;-78
2022/06/11 05:38:58;;;;;;;2.15;1.10;;;;;;;;;;4996081;28;20037;-78
2022/06/11 05:41:24;;;;;;;2.30;1.40;;;;;;;;;;4996654;28;20057;-78
2022/06/11 05:43:49;;;;;;;2.38;1.33;;;;;;;;;;4996831;28;20085;-78
2022/06/11 05:46:17;;;;;;;2.10;1.35;;;;;;;;;;4997645;28;20147;-79
2022/06/11 05:48:52;;;;;;;5.38;1.55;;;;;;;;;;4995590;28;20054;-78
2022/06/11 05:51:23;;;;;;;4.95;1.90;;;;;;;;;;4995960;28;20034;-78
2022/06/11 05:53:51;;;;;;;6.28;2.08;;;;;;;;;;4995870;28;20076;-78
2022/06/11 05:56:17;;;;;;;3.35;1.52;;;;;;;;;;4997167;28;20041;-78
2022/06/11 05:58:46;;;;;;;3.78;1.88;;;;;;;;;;4996847;28;20026;-79
2022/06/11 06:01:15;;;;;;;3.33;1.45;;;;;;;;;;4980928;28;20029;-78
2022/06/11 06:03:40;;;;;;;5.53;1.50;;;;;;;;;;4996912;28;20057;-79
2022/06/11 06:06:06;;;;;;;6.82;2.53;;;;;;;;;;4995177;28;20491;-79
2022/06/11 06:08:31;;;;;;;8.18;2.10;;;;;;;;;;4993886;28;20037;-78
2022/06/11 06:10:56;;;;;;;10.02;2.13;;;;;;;;;;4994312;28;20096;-78
2022/06/11 06:16:06;;;;;;;;;;;;;;;;;;4997799;28;20037;-79
2022/06/11 06:18:31;;;;;;;4.18;1.55;;;;;;;;;;4996913;28;19917;-81
2022/06/11 06:20:56;;;;;;;4.97;1.77;;;;;;;;;;4999766;28;20041;-79
2022/06/11 06:23:22;;;;;;;9.65;2.38;;;;;;;;;;4999040;28;20081;-77
2022/06/11 06:25:49;;;;;;;5.57;2.00;;;;;;;;;;5003562;28;20561;-78
2022/06/11 06:28:14;;;;;;;5.70;1.77;;;;;;;;;;5000201;28;20030;-78
2022/06/11 06:30:40;;;;;;;6.80;2.42;;;;;;;;;;4981897;28;20113;-80
2022/06/11 06:33:06;;;;;;;8.00;1.80;;;;;;;;;;4997582;28;20475;-78
2022/06/11 06:35:31;;;;;;;6.10;1.85;;;;;;;;;;4997152;28;20031;-77
2022/06/11 06:37:57;;;;;;;4.55;1.77;;;;;;;;;;4999284;28;20026;-77
2022/06/11 06:40:22;;;;;;;7.25;2.22;;;;;;;;;;5003599;28;20034;-76
2022/06/11 06:42:48;;;;;;;6.53;1.90;;;;;;;;;;4989825;28;20047;-77
2022/06/11 06:45:15;;;;;;;6.15;2.28;;;;;;;;;;4998745;28;20027;-77
2022/06/11 06:47:41;;;;;;;6.53;2.40;;;;;;;;;;4998768;28;20475;-79
2022/06/11 06:50:08;;;;;;;8.75;3.67;;;;;;;;;;4999167;28;20076;-79
2022/06/11 06:52:33;;;;;;;7.13;2.50;;;;;;;;;;4996868;28;20031;-78
2022/06/11 06:54:59;;;;;;;7.20;1.98;;;;;;;;;;4996460;28;20041;-79
2022/06/11 06:57:24;;;;;;;7.28;1.90;;;;;;;;;;4997144;28;20038;-79
2022/06/11 06:59:49;;;;;;;8.00;2.53;;;;;;;;;;4997292;28;20482;-79
2022/06/11 07:02:15;;;;;;;8.75;2.53;;;;;;;;;;4997760;28;20029;-80
2022/06/11 07:04:40;;;;;;;9.10;1.95;;;;;;;;;;5001277;28;20034;-80
2022/06/11 07:07:06;;;;;;;8.60;2.25;;;;;;;;;;4996799;28;20085;-79
2022/06/11 07:09:32;;;;;;;5.47;1.92;;;;;;;;;;4978857;28;20093;-79
2022/06/11 07:11:57;;;;;;;5.07;1.90;;;;;;;;;;4995634;28;20100;-80
2022/06/11 07:14:23;;;;;;;6.80;2.05;;;;;;;;;;4982179;28;20034;-80
2022/06/11 07:16:52;;;;;;;8.70;2.72;;;;;;;;;;4995967;28;20031;-80
2022/06/11 07:19:32;;;;;;;6.22;2.20;;;;;;;;;;4995150;28;20546;-80
2022/06/11 07:22:02;;;;;;;6.28;2.58;;;;;;;;;;4995216;28;20498;-79
2022/06/11 07:24:29;;;;;;;5.45;2.00;;;;;;;;;;4993402;28;20050;-79
2022/06/11 07:26:59;;;;;;;11.73;2.28;;;;;;;;;;4995206;28;20054;-79
2022/06/11 07:29:28;;;;;;;8.07;2.38;;;;;;;;;;4994495;28;20032;-80
2022/06/11 07:31:59;;;;;;;4.45;1.90;;;;;;;;;;4994823;28;20026;-79
2022/06/11 07:34:24;;;;;;;5.22;2.50;;;;;;;;;;4997181;28;20033;-79
2022/06/11 07:36:50;;;;;;;6.07;2.03;;;;;;;;;;4996891;28;20030;-78
2022/06/11 07:39:15;;;;;;;6.80;2.25;;;;;;;;;;4998490;28;20117;-79
2022/06/11 07:41:42;;;;;;;6.50;2.22;;;;;;;;;;4983526;28;20425;-79
2022/06/11 07:44:08;;;;;;;6.50;2.08;;;;;;;;;;4998242;28;20046;-79
2022/06/11 07:46:33;;;;;;;6.20;2.22;;;;;;;;;;4997951;28;20479;-79
2022/06/11 07:48:59;;;;;;;8.02;2.50;;;;;;;;;;5005746;28;20034;-80
2022/06/11 07:51:24;;;;;;;7.93;2.25;;;;;;;;;;4982369;28;20034;-81
2022/06/11 07:53:50;;;;;;;8.18;2.20;;;;;;;;;;4982463;28;20062;-80
2022/06/11 07:56:17;;;;;;;10.43;2.55;;;;;;;;;;4964802;28;20050;-80
2022/06/11 07:58:42;;;;;;;6.43;2.47;;;;;;;;;;4998396;28;20022;-80
2022/06/11 08:01:08;;;;;;;23.67;2.38;;;;;;;;;;4996656;28;20034;-80
2022/06/11 08:03:37;;;;;;;9.18;2.25;;;;;;;;;;4980511;28;20026;-81
2022/06/11 08:06:03;;;;;;;12.35;2.60;;;;;;;;;;4996573;28;20033;-79
2022/06/11 08:08:29;;;;;;;8.77;2.20;;;;;;;;;;4979612;28;20113;-79
2022/06/11 08:10:54;;;;;;;6.50;1.77;;;;;;;;;;4963515;28;20370;-80
2022/06/11 08:13:20;;;;;;;8.80;2.88;;;;;;;;;;4995908;28;20038;-79
2022/06/11 08:15:48;;;;;;;7.00;2.05;;;;;;;;;;4983802;28;20038;-82
2022/06/11 08:18:15;;;;;;;8.00;2.15;;;;;;;;;;5002742;28;20030;-81
2022/06/11 08:20:41;;;;;;;8.43;2.30;;;;;;;;;;4996082;28;20037;-80
2022/06/11 08:23:07;;;;;;;6.43;2.15;;;;;;;;;;4995466;28;20026;-80
2022/06/11 08:25:32;;;;;;;5.75;2.13;;;;;;;;;;4995815;28;20030;-81
2022/06/11 08:27:58;;;;;;;9.73;2.55;;;;;;;;;;4997101;28;20493;-80
2022/06/11 08:30:26;;;;;;;13.55;2.50;;;;;;;;;;4996189;28;20105;-81
2022/06/11 08:32:51;;;;;;;5.85;2.30;;;;;;;;;;4963395;28;20061;-80
2022/06/11 08:35:19;;;;;;;7.10;2.15;;;;;;;;;;4979668;28;20116;-80
2022/06/11 08:37:45;;;;;;;8.20;2.17;;;;;;;;;;4995927;28;20101;-80
2022/06/11 08:40:29;;;;;;;11.00;2.53;;;;;;;;;;4995126;28;20105;-80
2022/06/11 08:43:23;;;;;;;5.40;1.83;;;;;;;;;;4979005;28;20057;-80
2022/06/11 08:45:57;;;;;;;12.30;1.95;;;;;;;;;;4996398;28;20034;-80
2022/06/11 08:48:37;;;;;;;7.60;2.08;;;;;;;;;;4980098;28;20081;-80
2022/06/11 08:51:05;;;;;;;14.45;2.30;;;;;;;;;;4995161;28;20459;-79
2022/06/11 08:53:32;;;;;;;6.72;2.15;;;;;;;;;;4996096;28;20106;-80
2022/06/11 08:55:58;;;;;;;6.18;2.13;;;;;;;;;;4995200;28;20031;-80
2022/06/11 08:58:32;;;;;;;8.35;1.95;;;;;;;;;;4978668;28;20169;-80
2022/06/11 09:01:35;;;;;;;6.70;2.10;;;;;;;;;;4996711;28;20053;-80
2022/06/11 09:04:28;;;;;;;7.40;1.92;;;;;;;;;;4994974;28;20113;-80
2022/06/11 09:07:17;;;;;;;4.53;1.67;;;;;;;;;;4994726;28;20022;-80
2022/06/11 09:09:46;;;;;;;6.65;2.05;;;;;;;;;;4995524;28;20105;-80
2022/06/11 09:12:29;;;;;;;8.50;2.10;;;;;;;;;;4997445;28;20095;-83
2022/06/11 09:15:16;;;;;;;10.27;2.42;;;;;;;;;;4994969;28;20030;-80
2022/06/11 09:18:00;;;;;;;8.27;2.55;;;;;;;;;;4979384;28;20026;-80
2022/06/11 09:20:42;;;;;;;10.07;2.35;;;;;;;;;;4995993;28;20054;-80
2022/06/11 09:23:13;;;;;;;8.45;2.42;;;;;;;;;;4994722;28;20470;-80
2022/06/11 09:25:57;;;;;;;5.07;2.10;;;;;;;;;;4997012;28;20054;-80
2022/06/11 09:28:52;;;;;;;6.28;1.90;;;;;;;;;;4997333;28;20471;-80
2022/06/11 09:31:23;;;;;;;7.60;2.63;;;;;;;;;;4984027;28;20513;-80
2022/06/11 09:33:59;;;;;;;5.32;2.00;;;;;;;;;;4979412;28;20478;-80
2022/06/11 09:36:50;;;;;;;4.50;2.03;;;;;;;;;;4996409;28;20113;-81
2022/06/11 09:39:38;;;;;;;5.85;2.28;;;;;;;;;;4964500;28;20038;-80
2022/06/11 09:42:29;;;;;;;5.35;1.65;;;;;;;;;;4978936;28;20034;-81
2022/06/11 09:45:13;;;;;;;9.63;2.35;;;;;;;;;;4994577;28;20027;-81
2022/06/11 09:47:57;;;;;;;8.50;1.83;;;;;;;;;;4994255;28;20030;-81
2022/06/11 09:50:30;;;;;;;8.93;3.08;;;;;;;;;;4977711;28;20026;-80
2022/06/11 09:53:04;;;;;;;21.15;2.83;;;;;;;;;;4977521;28;20026;-80
2022/06/11 09:56:10;;;;;;;7.80;2.15;;;;;;;;;;4994706;28;20026;-80
2022/06/11 09:58:51;;;;;;;6.30;2.00;;;;;;;;;;4977682;28;20037;-80
2022/06/11 10:01:28;;;;;;;8.45;1.92;;;;;;;;;;4995202;28;20037;-79
2022/06/11 10:03:56;;;;;;;7.60;2.58;;;;;;;;;;4994115;28;20098;-81
2022/06/11 10:06:34;;;;;;;6.93;2.38;;;;;;;;;;4993866;28;20029;-80
2022/06/11 10:09:03;;;;;;;8.52;2.03;;;;;;;;;;4977549;28;20061;-80
2022/06/11 10:11:41;;;;;;;6.65;2.15;;;;;;;;;;4993548;28;20498;-80
2022/06/11 10:14:29;;;;;;;8.63;2.03;;;;;;;;;;4993508;28;20030;-80
2022/06/11 10:17:14;;;;;;;4.90;1.70;;;;;;;;;;4977893;28;20057;-79
2022/06/11 10:19:51;;;;;;;5.57;1.77;;;;;;;;;;4992770;28;20128;-80
2022/06/11 10:22:17;;;;;;;4.85;1.77;;;;;;;;;;4977503;28;20435;-80
2022/06/11 10:24:54;;;;;;;7.80;2.25;;;;;;;;;;4977078;28;20032;-78
2022/06/11 10:27:21;;;;;;;4.20;1.50;;;;;;;;;;4994658;28;20026;-78
2022/06/11 10:29:52;;;;;;;4.65;2.10;;;;;;;;;;4976913;28;20509;-78
2022/06/11 10:32:30;;;;;;;6.38;2.38;;;;;;;;;;4994342;28;20042;-78
2022/06/11 10:35:04;;;;;;;4.90;1.58;;;;;;;;;;4994320;28;20057;-78
2022/06/11 10:37:35;;;;;;;7.03;2.10;;;;;;;;;;4995578;28;20430;-79
2022/06/11 10:40:23;;;;;;;5.38;1.75;;;;;;;;;;4995209;28;20084;-78
2022/06/11 10:43:12;;;;;;;8.35;2.17;;;;;;;;;;4977249;28;20089;-79
2022/06/11 10:45:37;;;;;;;8.05;2.10;;;;;;;;;;4993290;28;20030;-80
2022/06/11 10:48:08;;;;;;;4.97;1.80;;;;;;;;;;4994167;28;20034;-80
2022/06/11 10:50:35;;;;;;;7.32;1.92;;;;;;;;;;4976852;28;20030;-79
2022/06/11 10:53:26;;;;;;;6.40;2.40;;;;;;;;;;4992914;28;20053;-79
2022/06/11 10:55:56;;;;;;;5.18;2.00;;;;;;;;;;4992935;28;20486;-82
2022/06/11 10:58:36;;;;;;;5.28;1.67;;;;;;;;;;4994208;28;20126;-79
2022/06/11 11:01:24;;;;;;;12.18;2.10;;;;;;;;;;4976727;28;20121;-85
2022/06/11 11:04:07;;;;;;;5.20;1.77;;;;;;;;;;4994355;28;20372;-82
2022/06/11 11:06:35;;;;;;;6.20;1.83;;;;;;;;;;4995050;28;20030;-86
2022/06/11 11:09:13;;;;;;;5.55;2.03;;;;;;;;;;4999737;28;20092;-80
2022/06/11 11:11:48;;;;;;;8.88;2.08;;;;;;;;;;5000009;28;20076;-82
2022/06/11 11:14:16;;;;;;;8.77;2.20;;;;;;;;;;4983921;28;20092;-83
2022/06/11 11:16:48;;;;;;;6.38;2.22;;;;;;;;;;4999396;28;20073;-81
2022/06/11 11:19:23;;;;;;;7.03;2.05;;;;;;;;;;4983569;28;20458;-82
2022/06/11 11:21:54;;;;;;;4.60;1.70;;;;;;;;;;4999258;28;20023;-82
2022/06/11 11:24:24;;;;;;;6.05;1.90;;;;;;;;;;5000437;28;20030;-84
2022/06/11 11:27:03;;;;;;;6.03;1.90;;;;;;;;;;4982948;28;20434;-84
2022/06/11 11:29:31;;;;;;;3.80;1.95;;;;;;;;;;4982979;28;20050;-85
2022/06/11 11:32:06;;;;;;;3.97;1.58;;;;;;;;;;5000221;28;20541;-84
2022/06/11 11:34:43;;;;;;;8.27;2.20;;;;;;;;;;4983759;28;20026;-81
2022/06/11 11:37:13;;;;;;;5.43;2.05;;;;;;;;;;4999524;28;20537;-82
2022/06/11 11:39:38;;;;;;;6.22;2.38;;;;;;;;;;5001499;28;20109;-82
2022/06/11 11:42:07;;;;;;;6.25;2.05;;;;;;;;;;4982618;28;20114;-81
2022/06/11 11:44:39;;;;;;;4.57;1.67;;;;;;;;;;5000170;28;20041;-81
2022/06/11 11:47:17;;;;;;;7.85;2.00;;;;;;;;;;4999076;28;20033;-81
2022/06/11 11:49:49;;;;;;;7.22;2.20;;;;;;;;;;4999268;28;20026;-81
2022/06/11 11:52:16;;;;;;;4.53;1.85;;;;;;;;;;4982564;28;20076;-81
2022/06/11 11:55:02;;;;;;;6.82;2.05;;;;;;;;;;4998891;28;20093;-81
2022/06/11 11:57:31;;;;;;;5.10;1.60;;;;;;;;;;4982982;28;20120;-81
2022/06/11 11:59:59;;;;;;;6.22;2.35;;;;;;;;;;4999543;28;20034;-78
2022/06/11 12:02:31;;;;;;;3.50;1.77;;;;;;;;;;5000586;28;20018;-81
2022/06/11 12:05:20;;;;;;;8.32;2.08;;;;;;;;;;5004943;28;20026;-81
2022/06/11 12:07:47;;;;;;;7.70;2.35;;;;;;;;;;5003445;28;20112;-81
2022/06/11 12:10:36;;;;;;;4.72;1.75;;;;;;;;;;4985539;28;20038;-81
2022/06/11 12:13:02;;;;;;;4.60;1.80;;;;;;;;;;4985813;28;20026;-82
2022/06/11 12:15:30;;;;;;;5.05;2.00;;;;;;;;;;5001234;28;20041;-82
2022/06/11 12:18:01;;;;;;;5.18;1.90;;;;;;;;;;4997991;28;20041;-82
2022/06/11 12:20:33;;;;;;;10.23;2.05;;;;;;;;;;4997152;28;20119;-82
2022/06/11 12:23:04;;;;;;;6.15;2.25;;;;;;;;;;4997206;28;20026;-82
2022/06/11 12:25:45;;;;;;;5.57;1.65;;;;;;;;;;4998763;28;20089;-81
2022/06/11 12:28:16;;;;;;;6.65;2.08;;;;;;;;;;4998032;28;20058;-81
2022/06/11 12:30:42;;;;;;;5.38;1.63;;;;;;;;;;4984112;28;20030;-80
2022/06/11 12:33:12;;;;;;;5.53;2.17;;;;;;;;;;5003506;28;20097;-81
2022/06/11 12:35:42;;;;;;;3.70;1.60;;;;;;;;;;5000749;28;20054;-81
2022/06/11 12:38:18;;;;;;;4.85;1.63;;;;;;;;;;4999492;28;20057;-81
2022/06/11 12:41:13;;;;;;;4.20;1.92;;;;;;;;;;5000040;28;20026;-80
2022/06/11 12:43:50;;;;;;;6.70;1.92;;;;;;;;;;4998684;28;20046;-81
2022/06/11 12:46:40;;;;;;;4.65;2.10;;;;;;;;;;4983968;28;20032;-81
2022/06/11 12:49:10;;;;;;;4.22;1.70;;;;;;;;;;4998645;28;20026;-82
2022/06/11 12:52:00;;;;;;;6.47;2.13;;;;;;;;;;5002140;28;20054;-80
2022/06/11 12:54:36;;;;;;;8.02;2.45;;;;;;;;;;5000001;28;20450;-80
2022/06/11 12:57:15;;;;;;;5.82;2.20;;;;;;;;;;4998449;28;20026;-82
2022/06/11 12:59:59;;;;;;;10.68;2.25;;;;;;;;;;4982192;28;20026;-82
2022/06/11 13:02:57;;;;;;;6.75;2.20;;;;;;;;;;4997756;28;20045;-82
2022/06/11 13:05:50;;;;;;;4.55;1.90;;;;;;;;;;4997860;28;20046;-82
2022/06/11 13:08:27;;;;;;;4.72;1.77;;;;;;;;;;4996000;28;20141;-81
2022/06/11 13:11:29;;;;;;;7.55;2.50;;;;;;;;;;4997851;28;20046;-81
2022/06/11 13:14:22;;;;;;;3.33;1.75;;;;;;;;;;4959139;28;20070;-82
2022/06/11 13:17:00;;;;;;;6.15;1.83;;;;;;;;;;4997310;28;20026;-80
2022/06/11 13:19:40;;;;;;;7.97;1.80;;;;;;;;;;4994514;28;20386;-80
2022/06/11 13:22:24;;;;;;;5.32;1.88;;;;;;;;;;4994627;28;20022;-79
2022/06/11 13:25:25;;;;;;;5.90;1.80;;;;;;;;;;4994438;28;20030;-79
2022/06/11 13:28:20;;;;;;;5.88;1.92;;;;;;;;;;4939141;29;20122;-80
2022/06/11 13:31:13;;;;;;;6.72;1.90;;;;;;;;;;4938586;29;20043;-79
2022/06/11 13:33:51;;;;;;;3.17;1.40;;;;;;;;;;4933172;29;20039;-80
2022/06/11 13:36:21;;;;;;;3.80;1.77;;;;;;;;;;4938970;29;20270;-80
2022/06/11 13:39:02;;;;;;;7.45;1.63;;;;;;;;;;4939885;29;20134;-80
2022/06/11 13:41:51;;;;;;;7.65;2.00;;;;;;;;;;4955338;29;20038;-80
2022/06/11 13:44:28;;;;;;;6.20;1.92;;;;;;;;;;4940337;29;20595;-80
2022/06/11 13:47:23;;;;;;;5.20;1.50;;;;;;;;;;4938185;29;20106;-81
2022/06/11 13:50:19;;;;;;;4.75;1.70;;;;;;;;;;4922896;29;20035;-80
2022/06/11 13:56:33;;;;;;;5.60;1.65;;;;;;;;;;4954739;29;20082;-80
2022/06/11 13:59:24;;;;;;;7.75;1.73;;;;;;;;;;4903426;29;20039;-80
2022/06/11 14:01:49;;;;;;;12.73;1.80;;;;;;;;;;4964331;28;20038;-80
2022/06/11 14:04:36;;;;;;;9.52;2.60;;;;;;;;;;4993612;28;20503;-81
2022/06/11 14:07:06;;;;;;;4.25;1.52;;;;;;;;;;4993439;28;20488;-81
2022/06/11 14:12:52;;;;;;;4.60;1.52;;;;;;;;;;4994046;28;20088;-81
2022/06/11 14:15:25;;;;;;;6.07;1.90;;;;;;;;;;4994075;28;20080;-81
2022/06/11 14:18:10;;;;;;;;;;;;;;;;;;4995144;28;20070;-81
2022/06/11 14:20:36;;;;;;;3.78;1.60;;;;;;;;;;4992026;28;19910;-81
2022/06/11 14:23:04;;;;;;;3.80;1.67;;;;;;;;;;4994858;28;20026;-81
2022/06/11 14:25:35;;;;;;;5.00;1.83;;;;;;;;;;4977031;28;20022;-81
2022/06/11 14:28:19;;;;;;;5.28;1.55;;;;;;;;;;4994895;28;20022;-81
2022/06/11 14:30:53;;;;;;;6.13;1.92;;;;;;;;;;4993134;28;20483;-81
2022/06/11 14:33:20;;;;;;;4.63;1.70;;;;;;;;;;4994700;28;20068;-81
2022/06/11 14:35:48;;;;;;;3.47;2.03;;;;;;;;;;4992975;28;20026;-81
2022/06/11 14:38:29;;;;;;;3.00;1.33;;;;;;;;;;4993102;28;20051;-81
2022/06/11 14:41:07;;;;;;;2.80;1.30;;;;;;;;;;4992538;28;20486;-80
2022/06/11 14:43:51;;;;;;;3.97;1.60;;;;;;;;;;4994118;28;20054;-81
2022/06/11 14:46:28;;;;;;;;;;;;;;;;;;4993778;28;20080;-80
2022/06/11 14:48:56;;;;;;;3.65;1.52;;;;;;;;;;4994862;28;19917;-81
2022/06/11 14:51:24;;;;;;;3.78;1.70;;;;;;;;;;4976821;28;20030;-80
2022/06/11 14:54:34;;;;;;;3.88;1.45;;;;;;;;;;4976614;28;20034;-81
2022/06/11 14:57:36;;;;;;;6.40;1.80;;;;;;;;;;4979909;28;20121;-80
2022/06/11 15:00:07;;;;;;;3.60;1.58;;;;;;;;;;4994734;28;20014;-80
2022/06/11 15:03:05;;;;;;;3.28;1.30;;;;;;;;;;4994302;28;20026;-80
2022/06/11 15:06:45;;;;;;;4.50;1.52;;;;;;;;;;4971623;28;20053;-80
2022/06/11 15:09:43;;;;;;;4.07;1.35;;;;;;;;;;4877384;29;20029;-80
2022/06/11 15:12:21;;;;;;;3.85;1.42;;;;;;;;;;4877533;29;20069;-80
2022/06/11 15:15:05;;;;;;;6.03;1.75;;;;;;;;;;4896339;29;20092;-80
2022/06/11 15:17:43;;;;;;;4.88;1.48;;;;;;;;;;4880825;29;20046;-81
2022/06/11 15:20:19;;;;;;;4.30;1.55;;;;;;;;;;4865047;29;20556;-80
2022/06/11 15:22:47;;;;;;;4.55;1.67;;;;;;;;;;4881061;29;20029;-81
2022/06/11 15:25:16;;;;;;;5.88;1.67;;;;;;;;;;4865655;29;20052;-79
2022/06/11 15:27:52;;;;;;;5.72;1.70;;;;;;;;;;4865762;29;20032;-79
2022/06/11 15:30:27;;;;;;;4.75;1.70;;;;;;;;;;4880971;29;20279;-79